INDIA METEOROLOGICAL DEPARTMENT, R.M.C. NEW DELHI
Dated:29 - 2 - 2024
METARS OF ALTERNATE AIRPORTS
Delhi      
VIDP 291430Z 26003KT 4000 HZ FEW100 20/09 Q1016 NOSIG=
Lucknow    
VILK 291430Z 27004KT 5000 HZ NSC 19/12 Q1014 NOSIG=
Jaipur     
VIJP 291430Z 00000KT 4500 HZ NSC 24/10 Q1016 NOSIG=
Ahmedabad  
VAAH 291430Z 31002KT 4000 FU NSC 30/10 Q1010 NOSIG=
Udaipur    
VAUD 291430Z 15003KT 5000 HZ NSC 25/10 Q1014 NOSIG=
Mumbai     
VABB 291430Z 33003KT 2500 FU FEW020 30/20 Q1010 NOSIG=